Grassy Creek, North Carolina
Current Conditions -  °F | °C
As of 11:55 PM on Saturday 22 Nov 2014 (Local Time) from KGEV Reporting Station
Clear Clear  
Wind Chill: 36°   Ceiling: Unl
Heat Index: 36°   Visibility: 10mi
Dew Point: 15°   Wind: 0mph
Humidity: 42%   Direction: NA
Pressure: 30.25"   Gusts: NA
Location:  36.56°N, 81.41°W
Report Text: KGEV 230455Z AUTO 00000KT 10SM CLR 02/M09 A3025 RMK AO2 T00231095
Loading
Personal Weather Stations






























Interactive Weather Map New forecast layout! Learn more

10-Day Weather Forecast

Advertisements
Track Severe Weather on mobile